KLM152 EHAM-PHNL
Flight info
| Callsign | KLM152 |
|---|---|
| Flight time | N/A |
| Altitude | 34000 |
| Route | BERGI DCT LONAM DCT ASKAM DCT SUM/M084F340 DCT 64N004W DCT 7010N DCT 74N016W 78N028W 80N039W/N0492F340 82N064W DCT 8280N DCT 80N10/N0496F360 DCT 75N30 DCT POTAT DCT JOH/N0490F380 DCT 55N50 DCT 50N152W 45N154W/N0476F390 DCT 40N55 DCT 35N156W 30N157W DCT ZIGIE INOYI1 |
| Aircraft | A35K/H-SDE2E3GHIJ3J4J5LM1ORWXY/LB1D1 |
Departure
| Time | 2026-04-30 18:25 |
|---|---|
| Airport | Amsterdam Airport Schiphol (EHAM) |
Arrival
| Time | N/A |
|---|---|
| Airport | Daniel K. Inouye International Airport (PHNL) |
| Time | Latitude | Longitude | Altitude | Speed | Heading |
|---|---|---|---|---|---|
| 2026-04-30 17:39 | 52.31381 | 4.76732 | 4 ft | 0 kts | 122° |
| 2026-04-30 18:17 | 52.31389 | 4.76713 | 4 ft | 3 kts | 122° |
| 2026-04-30 18:17 | 52.31399 | 4.76687 | 4 ft | 3 kts | 122° |
| 2026-04-30 18:17 | 52.31417 | 4.76633 | 7 ft | 3 kts | 93° |
| 2026-04-30 18:18 | 52.31415 | 4.76601 | 6 ft | 3 kts | 58° |
| 2026-04-30 18:18 | 52.31408 | 4.76585 | 6 ft | 0 kts | 35° |
| 2026-04-30 18:19 | 52.31409 | 4.76586 | 6 ft | 1 kts | 38° |
| 2026-04-30 18:19 | 52.31420 | 4.76602 | 6 ft | 3 kts | 40° |
| 2026-04-30 18:20 | 52.31445 | 4.76635 | 5 ft | 6 kts | 39° |
| 2026-04-30 18:20 | 52.31484 | 4.76670 | 3 ft | 7 kts | 17° |
| 2026-04-30 18:20 | 52.31528 | 4.76655 | 3 ft | 6 kts | 323° |
| 2026-04-30 18:20 | 52.31547 | 4.76595 | 3 ft | 6 kts | 284° |
| 2026-04-30 18:21 | 52.31549 | 4.76486 | 3 ft | 12 kts | 268° |
| 2026-04-30 18:21 | 52.31545 | 4.76353 | 3 ft | 12 kts | 267° |
| 2026-04-30 18:21 | 52.31540 | 4.76205 | 3 ft | 14 kts | 265° |
| 2026-04-30 18:21 | 52.31534 | 4.76048 | 3 ft | 14 kts | 266° |
| 2026-04-30 18:22 | 52.31527 | 4.75883 | 3 ft | 15 kts | 266° |
| 2026-04-30 18:22 | 52.31513 | 4.75529 | 3 ft | 16 kts | 266° |
| 2026-04-30 18:22 | 52.31508 | 4.75343 | 3 ft | 17 kts | 266° |
| 2026-04-30 18:23 | 52.31502 | 4.75150 | 3 ft | 18 kts | 267° |
| 2026-04-30 18:23 | 52.31496 | 4.74949 | 3 ft | 18 kts | 267° |
| 2026-04-30 18:23 | 52.31490 | 4.74781 | 3 ft | 11 kts | 266° |
| 2026-04-30 18:23 | 52.31529 | 4.74679 | 3 ft | 13 kts | 333° |
| 2026-04-30 18:24 | 52.31660 | 4.74750 | 6 ft | 12 kts | 71° |
| 2026-04-30 18:24 | 52.31674 | 4.74919 | 1 ft | 22 kts | 85° |
| 2026-04-30 18:24 | 52.31696 | 4.75579 | 1 ft | 96 kts | 86° |
| 2026-04-30 18:25 | 52.31749 | 4.77081 | 2 ft | 166 kts | 86° |
| 2026-04-30 18:25 | 52.32735 | 4.80665 | 1440 ft | 192 kts | 33° |
| 2026-04-30 18:25 | 52.34133 | 4.80890 | 1833 ft | 221 kts | 355° |
| 2026-04-30 18:26 | 52.37442 | 4.79656 | 2475 ft | 271 kts | 356° |
| 2026-04-30 18:26 | 52.39281 | 4.78607 | 3377 ft | 287 kts | 326° |
| 2026-04-30 18:26 | 52.40743 | 4.76414 | 4193 ft | 286 kts | 311° |
| 2026-04-30 18:27 | 52.43461 | 4.71532 | 5287 ft | 294 kts | 313° |
| 2026-04-30 18:27 | 52.44891 | 4.69085 | 5843 ft | 299 kts | 314° |
| 2026-04-30 18:28 | 52.48101 | 4.64841 | 7012 ft | 300 kts | 342° |
| 2026-04-30 18:28 | 52.50067 | 4.63664 | 7658 ft | 301 kts | 343° |
| 2026-04-30 18:28 | 52.54021 | 4.61268 | 8976 ft | 305 kts | 342° |
| 2026-04-30 18:29 | 52.56014 | 4.60008 | 9607 ft | 308 kts | 341° |
| 2026-04-30 18:29 | 52.62282 | 4.56616 | 10937 ft | 335 kts | 345° |
| 2026-04-30 18:30 | 52.66944 | 4.54270 | 11460 ft | 366 kts | 346° |
| 2026-04-30 18:30 | 52.72008 | 4.51744 | 11950 ft | 393 kts | 346° |
| 2026-04-30 18:31 | 52.74646 | 4.50426 | 12399 ft | 399 kts | 346° |
| 2026-04-30 18:31 | 52.80019 | 4.47731 | 13463 ft | 406 kts | 346° |
| 2026-04-30 18:32 | 52.85439 | 4.45006 | 14462 ft | 413 kts | 345° |
| 2026-04-30 18:32 | 52.88197 | 4.43617 | 14946 ft | 416 kts | 345° |
| 2026-04-30 18:32 | 52.93771 | 4.40807 | 15935 ft | 422 kts | 345° |
| 2026-04-30 18:33 | 52.96596 | 4.39380 | 16399 ft | 426 kts | 345° |
| 2026-04-30 18:33 | 53.02295 | 4.36495 | 17424 ft | 431 kts | 345° |
| 2026-04-30 18:33 | 53.05176 | 4.35034 | 17910 ft | 434 kts | 345° |
| 2026-04-30 18:34 | 53.08064 | 4.33567 | 18415 ft | 437 kts | 345° |
| 2026-04-30 18:34 | 53.13926 | 4.30583 | 19329 ft | 441 kts | 345° |
| 2026-04-30 18:34 | 53.16868 | 4.29081 | 19818 ft | 443 kts | 345° |
| 2026-04-30 18:35 | 53.19822 | 4.27572 | 20287 ft | 445 kts | 345° |
| 2026-04-30 18:35 | 53.22793 | 4.26052 | 20781 ft | 447 kts | 345° |
| 2026-04-30 18:35 | 53.25769 | 4.24527 | 21293 ft | 449 kts | 344° |
| 2026-04-30 18:36 | 53.31728 | 4.21467 | 22309 ft | 452 kts | 344° |